Time;durP1;ratioP1;P1;durP2;ratioP2;P2;SDS_P1;SDS_P2;PMS_P1;PMS_P2;Temp;Humidity;BMP_temperature;BMP_pressure;BME280_temperature;BME280_humidity;BME280_pressure;Samples;Min_cycle;Max_cycle;Signal;HPM_P1;HPM_P2
2023/05/08 00:00:57;;;;;;;5.97;3.60;;;;;;;14.65;100.00;101482.56;2071462;28;20211;-66
2023/05/08 00:01:58;;;;;;;5.83;3.80;;;;;;;14.63;100.00;101485.00;2066116;28;20615;-67
2023/05/08 00:02:58;;;;;;;4.37;3.70;;;;;;;13.04;100.00;101246.28;2064480;28;20497;-66
2023/05/08 00:03:59;;;;;;;6.07;3.90;;;;;;;14.62;100.00;101494.63;2071926;28;20210;-66
2023/05/08 00:04:59;;;;;;;4.80;3.93;;;;;;;14.56;100.00;101485.19;2070282;28;20196;-66
2023/05/08 00:06:03;;;;;;;4.77;3.83;;;;;;;14.61;100.00;101492.25;2064681;28;20678;-67
2023/05/08 00:07:03;;;;;;;5.23;3.67;;;;;;;14.63;100.00;101489.81;2064659;28;20677;-67
2023/05/08 00:08:04;;;;;;;7.47;4.10;;;;;;;14.09;100.00;101407.97;2071271;28;20825;-67
2023/05/08 00:09:05;;;;;;;5.00;3.83;;;;;;;14.51;100.00;101482.16;2077581;28;20268;-67
2023/05/08 00:10:07;;;;;;;5.03;4.13;;;;;;;14.55;100.00;101488.44;2073032;28;20214;-67
2023/05/08 00:11:07;;;;;;;5.53;4.20;;;;;;;14.50;100.00;101486.19;2072666;28;20191;-67
2023/05/08 00:12:08;;;;;;;6.70;4.40;;;;;;;14.49;100.00;101488.19;2069283;28;20428;-66
2023/05/08 00:13:08;;;;;;;8.30;4.40;;;;;;;14.47;100.00;101490.63;2072578;28;20208;-66
2023/05/08 00:14:09;;;;;;;7.37;4.80;;;;;;;14.28;100.00;101460.84;2071384;28;20185;-67
2023/05/08 00:15:09;;;;;;;6.90;4.50;;;;;;;14.41;100.00;101484.03;2071410;28;20191;-67
2023/05/08 00:16:11;;;;;;;7.47;4.33;;;;;;;14.41;100.00;101489.59;2072809;28;20207;-67
2023/05/08 00:17:12;;;;;;;6.40;4.50;;;;;;;14.37;100.00;101493.69;2072376;28;20202;-67
2023/05/08 00:18:12;;;;;;;6.23;4.10;;;;;;;13.17;100.00;101309.16;2068328;28;20934;-67
2023/05/08 00:19:13;;;;;;;5.97;4.20;;;;;;;14.36;100.00;101492.91;2068448;28;21037;-67
2023/05/08 00:20:13;;;;;;;5.63;4.10;;;;;;;14.23;100.00;101483.69;2064561;28;20180;-67
2023/05/08 00:21:14;;;;;;;5.47;3.87;;;;;;;14.31;100.00;101499.03;2070053;28;20193;-68
2023/05/08 00:22:14;;;;;;;5.93;4.17;;;;;;;14.28;100.00;101494.31;2072808;28;20208;-67
2023/05/08 00:23:15;;;;;;;7.53;4.73;;;;;;;14.25;100.00;101497.19;2072299;28;20190;-67
2023/05/08 00:24:15;;;;;;;5.97;4.47;;;;;;;14.19;100.00;101493.31;2065076;28;20202;-67
2023/05/08 00:25:15;;;;;;;4.57;4.00;;;;;;;14.13;100.00;101498.63;2063949;28;20187;-66
2023/05/08 00:26:16;;;;;;;6.23;4.27;;;;;;;14.16;100.00;101497.78;2070183;28;20697;-66
2023/05/08 00:27:16;;;;;;;5.37;4.00;;;;;;;14.13;100.00;101498.63;2072741;28;20186;-67
2023/05/08 00:28:17;;;;;;;5.77;4.07;;;;;;;14.10;100.00;101498.72;2069494;28;20193;-66
2023/05/08 00:29:17;;;;;;;6.17;3.90;;;;;;;13.46;100.00;101415.06;2064198;28;20174;-67
2023/05/08 00:30:18;;;;;;;4.70;4.20;;;;;;;14.07;100.00;101497.59;2065636;28;20204;-66
2023/05/08 00:31:18;;;;;;;5.87;4.17;;;;;;;14.06;100.00;101493.25;2063897;28;20235;-66
2023/05/08 00:32:18;;;;;;;6.43;4.43;;;;;;;14.03;100.00;101501.69;2070616;28;20189;-67
2023/05/08 00:33:19;;;;;;;9.13;4.17;;;;;;;14.03;100.00;101498.91;2072552;28;20203;-66
2023/05/08 00:34:19;;;;;;;5.23;3.97;;;;;;;14.04;100.00;101504.00;2066131;28;20242;-66
2023/05/08 00:35:20;;;;;;;5.83;3.70;;;;;;;14.01;100.00;101504.09;2070839;28;20600;-67
2023/05/08 00:36:21;;;;;;;7.57;4.07;;;;;;;13.99;100.00;101496.19;2071849;28;20691;-66
2023/05/08 00:37:21;;;;;;;5.17;4.00;;;;;;;13.98;100.00;101502.22;2070760;28;20188;-67
2023/05/08 00:38:22;;;;;;;5.20;4.27;;;;;;;13.94;100.00;101498.72;2065109;28;20186;-67
2023/05/08 00:39:22;;;;;;;6.13;4.10;;;;;;;13.93;100.00;101499.94;2072051;28;20199;-66
2023/05/08 00:40:23;;;;;;;7.93;4.00;;;;;;;13.89;100.00;101493.66;2072352;28;20228;-66
2023/05/08 00:41:23;;;;;;;5.67;4.17;;;;;;;13.86;100.00;101494.50;2072464;28;20660;-66
2023/05/08 00:42:23;;;;;;;5.47;3.70;;;;;;;13.82;100.00;101493.81;2067658;28;21084;-67
2023/05/08 00:43:26;;;;;;;6.27;4.13;;;;;;;13.78;100.00;101499.47;2067791;28;20588;-67
2023/05/08 00:44:27;;;;;;;5.67;4.47;;;;;;;13.67;100.00;101473.06;2070048;28;20188;-66
2023/05/08 00:45:33;;;;;;;5.33;4.23;;;;;;;13.75;100.00;101505.13;2075917;28;20429;-67
2023/05/08 00:46:35;;;;;;;6.03;4.40;;;;;;;13.67;100.00;101504.50;2071733;28;20268;-67
2023/05/08 00:47:36;;;;;;;6.07;4.30;;;;;;;13.05;100.00;101431.50;2064673;28;20417;-66
2023/05/08 00:48:38;;;;;;;6.40;4.20;;;;;;;13.56;100.00;101506.75;2071848;28;20455;-66
2023/05/08 00:49:39;;;;;;;5.47;4.17;;;;;;;13.21;100.00;101437.13;2072265;28;20179;-66
2023/05/08 00:50:39;;;;;;;4.67;4.00;;;;;;;13.62;100.00;101499.44;2066765;28;20528;-66
2023/05/08 00:51:42;;;;;;;4.57;4.03;;;;;;;13.66;100.00;101499.34;2064519;28;20182;-66
2023/05/08 00:52:42;;;;;;;5.60;4.30;;;;;;;13.63;100.00;101501.00;2066628;28;20208;-66
2023/05/08 00:53:44;;;;;;;5.80;4.20;;;;;;;13.66;100.00;101508.50;2072630;28;20417;-66
2023/05/08 00:54:45;;;;;;;4.73;4.20;;;;;;;13.09;100.00;101415.50;2071653;28;20222;-66
2023/05/08 00:55:46;;;;;;;6.40;4.57;;;;;;;13.64;100.00;101502.59;2064254;28;20535;-66
2023/05/08 00:56:49;;;;;;;6.03;4.10;;;;;;;13.63;100.00;101494.66;2071365;28;20490;-66
2023/05/08 00:57:51;;;;;;;6.83;4.00;;;;;;;13.61;100.00;101494.28;2067063;28;20834;-66
2023/05/08 00:58:51;;;;;;;6.40;4.47;;;;;;;13.58;100.00;101501.50;2069327;28;20438;-65
2023/05/08 00:59:53;;;;;;;6.10;4.10;;;;;;;13.59;100.00;101497.53;2070140;28;20540;-65
2023/05/08 01:00:55;;;;;;;4.03;3.60;;;;;;;13.54;100.00;101486.09;2068166;28;20179;-65
2023/05/08 01:01:55;;;;;;;4.43;4.03;;;;;;;13.59;100.00;101503.09;2072544;28;20863;-66
2023/05/08 01:02:58;;;;;;;6.70;4.10;;;;;;;13.57;100.00;101497.16;2065689;28;20527;-66
2023/05/08 01:03:58;;;;;;;5.43;4.57;;;;;;;13.57;100.00;101499.19;2066081;28;20178;-66
2023/05/08 01:04:59;;;;;;;4.83;4.33;;;;;;;13.58;100.00;101500.75;2073232;28;20447;-66
2023/05/08 01:06:00;;;;;;;5.73;4.30;;;;;;;13.58;100.00;101501.50;2073510;28;20238;-66
2023/05/08 01:07:02;;;;;;;6.43;4.13;;;;;;;13.56;100.00;101497.59;2068915;28;20683;-66
2023/05/08 01:08:02;;;;;;;9.37;4.20;;;;;;;13.54;100.00;101511.97;2071149;28;20568;-66
2023/05/08 01:09:03;;;;;;;8.40;4.90;;;;;;;13.54;100.00;101500.03;2071359;28;20528;-66
2023/05/08 01:10:05;;;;;;;8.57;4.43;;;;;;;13.55;100.00;101499.59;2066986;28;20180;-66
2023/05/08 01:11:28;;;;;;;7.73;4.60;;;;;;;13.54;100.00;101494.47;2072593;28;20189;-67
2023/05/08 01:12:56;;;;;;;7.77;4.27;;;;;;;13.51;100.00;101504.47;2065238;28;20975;-67
2023/05/08 01:14:03;;;;;;;6.37;4.60;;;;;;;13.39;100.00;101490.41;2069315;28;20444;-66
2023/05/08 01:15:07;;;;;;;8.67;4.67;;;;;;;13.49;100.00;101506.09;2067777;28;20495;-66
2023/05/08 01:16:15;;;;;;;8.90;4.23;;;;;;;13.48;100.00;101505.31;2073545;28;20466;-66
2023/05/08 01:17:21;;;;;;;12.03;4.47;;;;;;;13.49;100.00;101506.09;2070599;28;20516;-67
2023/05/08 01:18:26;;;;;;;11.47;5.10;;;;;;;13.25;100.00;101462.88;2066065;28;20452;-66
2023/05/08 01:19:41;;;;;;;6.40;4.50;;;;;;;13.45;100.00;101505.41;2067117;28;20417;-67
2023/05/08 01:21:11;;;;;;;8.40;4.33;;;;;;;13.43;100.00;101503.03;2074663;28;20425;-66
2023/05/08 01:22:11;;;;;;;6.07;3.90;;;;;;;13.41;100.00;101508.25;2071225;28;20448;-66
2023/05/08 01:23:17;;;;;;;6.97;4.10;;;;;;;13.33;100.00;101514.41;2070226;28;20437;-66
2023/05/08 01:24:31;;;;;;;7.90;4.10;;;;;;;13.34;100.00;101521.53;2073370;28;20216;-66
2023/05/08 01:25:34;;;;;;;6.33;4.30;;;;;;;13.35;100.00;101520.31;2070983;28;20843;-66
2023/05/08 01:26:56;;;;;;;6.90;3.93;;;;;;;13.37;100.00;101523.47;2073648;28;20433;-66
2023/05/08 01:28:11;;;;;;;6.23;4.33;;;;;;;13.39;100.00;101530.19;2073825;28;20570;-66
2023/05/08 01:29:28;;;;;;;5.50;3.90;;;;;;;13.39;100.00;101518.25;2073637;28;20438;-66
2023/05/08 01:30:58;;;;;;;4.83;4.10;;;;;;;13.41;100.00;101524.16;2071754;28;20447;-66
2023/05/08 01:32:17;;;;;;;7.30;4.10;;;;;;;13.39;100.00;101529.41;2065947;28;20548;-67
2023/05/08 01:33:38;;;;;;;5.10;3.77;;;;;;;13.39;100.00;101526.63;2071792;28;20436;-67
2023/05/08 01:34:56;;;;;;;4.60;3.30;;;;;;;13.40;100.00;101519.81;2068760;28;20463;-67
2023/05/08 01:36:05;;;;;;;5.30;3.63;;;;;;;13.37;100.00;101518.69;2073391;28;20538;-66
2023/05/08 01:37:11;;;;;;;5.00;3.80;;;;;;;13.32;100.00;101521.97;2068920;28;20453;-66
2023/05/08 01:38:25;;;;;;;4.50;3.73;;;;;;;13.31;100.00;101512.06;2073415;28;20869;-66
2023/05/08 01:39:45;;;;;;;7.60;3.80;;;;;;;13.36;100.00;101519.91;2068227;28;20439;-66
2023/05/08 01:41:05;;;;;;;4.70;3.77;;;;;;;13.36;100.00;101514.34;2065314;28;20447;-66
2023/05/08 01:42:16;;;;;;;6.17;3.70;;;;;;;13.31;100.00;101520.41;2072981;28;20881;-66
2023/05/08 01:43:34;;;;;;;7.10;4.10;;;;;;;13.24;100.00;101526.13;2073412;28;20479;-66
2023/05/08 01:44:40;;;;;;;6.70;3.97;;;;;;;13.26;100.00;101518.13;2071582;28;20421;-66
2023/05/08 01:45:45;;;;;;;7.00;4.00;;;;;;;13.26;100.00;101523.69;2069078;28;20428;-66
2023/05/08 01:46:50;;;;;;;6.00;3.93;;;;;;;13.30;100.00;101532.75;2070154;28;20420;-67
2023/05/08 01:48:04;;;;;;;4.73;3.90;;;;;;;12.84;100.00;101463.31;2066439;28;20445;-66
2023/05/08 01:49:14;;;;;;;5.30;3.63;;;;;;;13.29;100.00;101522.84;2065776;28;20823;-66
2023/05/08 01:50:29;;;;;;;8.93;4.37;;;;;;;13.36;100.00;101533.03;2065738;28;20423;-66
2023/05/08 01:51:37;;;;;;;4.03;3.40;;;;;;;13.39;100.00;101529.41;2072025;28;20436;-66
2023/05/08 01:53:04;;;;;;;6.50;3.70;;;;;;;13.38;100.00;101530.63;2068784;28;20792;-66
2023/05/08 01:54:08;;;;;;;5.97;4.03;;;;;;;13.36;100.00;101528.25;2067355;28;20516;-66
2023/05/08 01:55:11;;;;;;;4.20;3.40;;;;;;;13.29;100.00;101511.72;2071885;28;20444;-67
2023/05/08 01:56:16;;;;;;;5.90;3.50;;;;;;;13.37;100.00;101527.03;2065927;28;20483;-66
2023/05/08 01:57:18;;;;;;;5.43;3.30;;;;;;;13.36;100.00;101522.69;2075295;28;20883;-66
2023/05/08 01:58:20;;;;;;;5.23;3.40;;;;;;;13.37;100.00;101517.91;2065539;28;20426;-66
2023/05/08 01:59:23;;;;;;;7.83;3.60;;;;;;;13.38;100.00;101520.25;2072091;28;20534;-66
2023/05/08 02:00:28;;;;;;;4.17;3.73;;;;;;;13.36;100.00;101519.09;2072608;28;21020;-67
2023/05/08 02:01:32;;;;;;;4.67;3.73;;;;;;;13.35;100.00;101515.56;2069484;28;20461;-66
2023/05/08 02:02:34;;;;;;;5.27;3.83;;;;;;;13.30;100.00;101518.84;2068060;28;20501;-66
2023/05/08 02:03:38;;;;;;;4.37;3.90;;;;;;;12.51;100.00;101400.38;2069867;28;20444;-66
2023/05/08 02:04:42;;;;;;;5.93;3.87;;;;;;;13.31;100.00;101516.81;2069699;28;20943;-66
2023/05/08 02:05:44;;;;;;;7.00;3.90;;;;;;;13.28;100.00;101517.69;2067483;28;20510;-67
2023/05/08 02:06:44;;;;;;;4.73;4.20;;;;;;;13.29;100.00;101522.06;2073864;28;20416;-66
2023/05/08 02:07:47;;;;;;;5.60;3.73;;;;;;;13.30;100.00;101515.25;2073228;28;20960;-67
2023/05/08 02:08:49;;;;;;;4.27;3.83;;;;;;;13.32;100.00;101519.19;2068013;28;20648;-66
2023/05/08 02:09:50;;;;;;;5.80;4.00;;;;;;;13.36;100.00;101507.97;2072389;28;20500;-66
2023/05/08 02:10:51;;;;;;;4.87;4.03;;;;;;;13.36;100.00;101517.13;2071135;28;20517;-66
2023/05/08 02:11:54;;;;;;;6.83;4.03;;;;;;;13.40;100.00;101542.09;2067075;28;20440;-66
2023/05/08 02:12:55;;;;;;;5.83;4.00;;;;;;;13.39;100.00;101513.50;2070590;28;20446;-67
2023/05/08 02:14:00;;;;;;;5.67;3.60;;;;;;;13.40;100.00;101519.81;2073221;28;20443;-67
2023/05/08 02:15:02;;;;;;;6.57;4.00;;;;;;;13.39;100.00;101509.91;2072407;28;20485;-66
2023/05/08 02:16:04;;;;;;;6.43;3.73;;;;;;;13.39;100.00;101510.72;2070408;28;21704;-66
2023/05/08 02:17:08;;;;;;;5.33;3.97;;;;;;;13.39;100.00;101501.56;2072925;28;20434;-66
2023/05/08 02:18:09;;;;;;;6.30;3.93;;;;;;;13.39;100.00;101507.13;2071751;28;20467;-67
2023/05/08 02:19:11;;;;;;;7.20;4.03;;;;;;;13.25;100.00;101490.72;2064685;28;20461;-66
2023/05/08 02:20:13;;;;;;;10.57;4.43;;;;;;;12.54;100.00;101377.28;2072898;28;20426;-66
2023/05/08 02:21:14;;;;;;;8.67;4.20;;;;;;;12.49;100.00;101377.00;2078215;28;20431;-66
2023/05/08 02:22:17;;;;;;;7.73;3.87;;;;;;;13.43;100.00;101510.63;2074631;28;20467;-66
2023/05/08 02:23:19;;;;;;;11.97;4.23;;;;;;;13.42;100.00;101507.03;2073489;28;20217;-67
2023/05/08 02:24:21;;;;;;;4.53;3.20;;;;;;;13.43;100.00;101516.97;2068470;28;20828;-66
2023/05/08 02:25:21;;;;;;;7.03;3.70;;;;;;;13.41;100.00;101511.03;2069095;28;20950;-67
2023/05/08 02:26:24;;;;;;;4.67;3.20;;;;;;;13.43;100.00;101516.97;2073103;28;20890;-67
2023/05/08 02:27:26;;;;;;;4.90;3.80;;;;;;;13.43;100.00;101514.16;2072900;28;20672;-66
2023/05/08 02:28:29;;;;;;;5.63;3.53;;;;;;;13.44;100.00;101528.91;2072067;28;20552;-67
2023/05/08 02:29:30;;;;;;;5.20;3.33;;;;;;;13.29;100.00;101519.25;2065026;28;20797;-66
2023/05/08 02:30:33;;;;;;;6.20;3.57;;;;;;;13.23;100.00;101507.06;2065023;28;20420;-66
2023/05/08 02:31:35;;;;;;;5.83;3.43;;;;;;;13.23;100.00;101507.84;2069295;28;20803;-67
2023/05/08 02:32:35;;;;;;;5.97;3.70;;;;;;;13.17;100.00;101514.34;2073702;28;20483;-66
2023/05/08 02:33:39;;;;;;;4.10;3.20;;;;;;;13.16;100.00;101513.56;2068162;28;20482;-66
2023/05/08 02:34:40;;;;;;;4.63;3.20;;;;;;;12.37;100.00;101395.13;2065212;28;20270;-66
2023/05/08 02:35:43;;;;;;;6.80;3.30;;;;;;;13.07;100.00;101515.34;2068002;28;20455;-66
2023/05/08 02:36:44;;;;;;;4.03;3.63;;;;;;;13.06;100.00;101514.56;2071232;28;20863;-66
2023/05/08 02:37:48;;;;;;;6.73;4.00;;;;;;;13.03;100.00;101509.06;2069130;28;20451;-66
2023/05/08 02:38:53;;;;;;;6.23;3.77;;;;;;;12.46;100.00;101436.25;2065568;28;20178;-66
2023/05/08 02:39:57;;;;;;;7.30;3.90;;;;;;;11.63;100.00;101300.44;2080759;28;20479;-66
2023/05/08 02:41:02;;;;;;;6.07;3.83;;;;;;;12.89;100.00;101507.31;2079871;28;20940;-66
2023/05/08 02:42:03;;;;;;;4.17;3.77;;;;;;;12.78;100.00;101503.97;2073031;28;20546;-66
2023/05/08 02:43:04;;;;;;;5.30;4.30;;;;;;;12.65;100.00;101489.09;2073323;28;20425;-66
2023/05/08 02:44:05;;;;;;;6.50;4.10;;;;;;;12.84;100.00;101509.78;2067694;28;20201;-66
2023/05/08 02:45:06;;;;;;;5.50;4.10;;;;;;;12.79;100.00;101507.50;2065370;28;20491;-67
2023/05/08 02:46:25;;;;;;;6.10;4.07;;;;;;;12.73;100.00;101507.22;2072193;28;20444;-66
2023/05/08 02:48:08;;;;;;;4.60;4.20;;;;;;;12.80;100.00;101507.09;2073539;28;21010;-66
2023/05/08 02:49:25;;;;;;;5.23;4.10;;;;;;;12.82;100.00;101509.44;2072615;28;20420;-67
2023/05/08 02:50:37;;;;;;;4.53;3.90;;;;;;;12.79;100.00;101521.41;2066079;28;20474;-66
2023/05/08 02:51:54;;;;;;;6.80;4.10;;;;;;;12.79;100.00;101516.66;2064802;28;20417;-67
2023/05/08 02:53:02;;;;;;;6.37;4.60;;;;;;;12.79;100.00;101516.66;2067523;28;20410;-65
2023/05/08 02:54:23;;;;;;;6.70;3.73;;;;;;;12.80;100.00;101520.22;2071058;28;20502;-66
2023/05/08 02:55:37;;;;;;;5.20;4.37;;;;;;;12.75;100.00;101506.81;2068079;28;20450;-66
2023/05/08 02:56:46;;;;;;;8.47;4.70;;;;;;;12.84;100.00;101515.38;2071127;28;20503;-66
2023/05/08 02:58:06;;;;;;;5.87;4.00;;;;;;;12.82;100.00;101513.00;2077091;28;20445;-66
2023/05/08 02:59:26;;;;;;;7.93;4.47;;;;;;;12.80;100.00;101503.53;2067050;28;20872;-66
2023/05/08 03:00:39;;;;;;;7.10;4.40;;;;;;;12.72;100.00;101508.44;2065108;28;20977;-66
2023/05/08 03:02:09;;;;;;;6.33;4.23;;;;;;;12.68;100.00;101509.72;2064969;28;20466;-66
2023/05/08 03:03:21;;;;;;;5.63;4.47;;;;;;;12.64;100.00;101504.22;2068978;28;20444;-66
2023/05/08 03:04:30;;;;;;;6.53;4.30;;;;;;;12.39;100.00;101476.06;2068155;28;20432;-66
2023/05/08 03:05:34;;;;;;;12.27;4.87;;;;;;;12.51;100.00;101506.03;2071771;28;20400;-66
2023/05/08 03:06:40;;;;;;;7.10;4.57;;;;;;;12.34;100.00;101495.25;2065037;28;20475;-66
2023/05/08 03:07:43;;;;;;;6.20;4.23;;;;;;;11.96;100.00;101418.88;2070941;28;20421;-66
2023/05/08 03:08:47;;;;;;;8.33;4.80;;;;;;;12.19;100.00;101444.66;2066909;28;20475;-65
2023/05/08 03:09:54;;;;;;;5.13;4.30;;;;;;;12.56;100.00;101497.19;2064432;28;20445;-66
2023/05/08 03:10:58;;;;;;;8.67;4.50;;;;;;;12.45;100.00;101479.16;2064838;28;20974;-66
2023/05/08 03:12:09;;;;;;;7.87;4.67;;;;;;;12.70;100.00;101496.94;2071745;28;20458;-66
2023/05/08 03:13:12;;;;;;;11.90;4.10;;;;;;;12.73;100.00;101498.88;2066464;28;20766;-66
2023/05/08 03:14:18;;;;;;;12.33;4.83;;;;;;;12.68;100.00;101496.59;2072742;28;20436;-67
2023/05/08 03:15:26;;;;;;;11.87;4.43;;;;;;;12.84;100.00;101493.09;2073002;28;20417;-66
2023/05/08 03:16:30;;;;;;;14.90;5.63;;;;;;;12.95;100.00;101496.47;2071977;28;20482;-66
2023/05/08 03:17:32;;;;;;;13.73;4.70;;;;;;;12.87;100.00;101483.91;2068646;28;20425;-66
2023/05/08 03:18:44;;;;;;;15.73;5.03;;;;;;;13.02;100.00;101491.56;2069075;28;20438;-66
2023/05/08 03:19:49;;;;;;;11.90;5.27;;;;;;;13.09;100.00;101494.22;2064733;28;20453;-66
2023/05/08 03:20:53;;;;;;;14.90;4.90;;;;;;;13.09;100.00;101491.44;2067456;28;20443;-66
2023/05/08 03:21:55;;;;;;;16.80;4.73;;;;;;;13.18;100.00;101491.66;2069134;28;20436;-65
2023/05/08 03:22:56;;;;;;;9.53;4.37;;;;;;;13.28;100.00;101487.84;2072578;28;20862;-67
2023/05/08 03:24:01;;;;;;;10.87;4.43;;;;;;;12.27;100.00;101321.06;2072964;28;20511;-67
2023/05/08 03:25:05;;;;;;;8.83;4.10;;;;;;;13.42;100.00;101490.34;2072993;28;20403;-67
2023/05/08 03:26:07;;;;;;;13.47;4.50;;;;;;;13.52;100.00;101499.69;2065328;28;20433;-65
2023/05/08 03:27:08;;;;;;;19.50;5.90;;;;;;;13.41;100.00;101472.06;2070773;28;21005;-67
2023/05/08 03:28:10;;;;;;;21.90;5.00;;;;;;;13.54;100.00;101486.91;2068412;28;20480;-67
2023/05/08 03:29:12;;;;;;;12.93;4.53;;;;;;;13.68;100.00;101535.94;2064545;28;20448;-66
2023/05/08 03:30:15;;;;;;;12.37;4.97;;;;;;;13.69;100.00;101504.06;2071289;28;20430;-67
2023/05/08 03:31:19;;;;;;;9.87;4.40;;;;;;;13.74;100.00;101507.13;2070740;28;20450;-67
2023/05/08 03:32:22;;;;;;;8.37;4.23;;;;;;;13.78;100.00;101505.03;2065319;28;20484;-67
2023/05/08 03:33:24;;;;;;;8.13;4.30;;;;;;;12.86;100.00;101355.16;2079306;28;20437;-66
2023/05/08 03:34:25;;;;;;;11.23;4.10;;;;;;;13.43;100.00;101452.91;2069610;28;20455;-66
2023/05/08 03:35:27;;;;;;;18.50;4.63;;;;;;;13.85;100.00;101496.53;2072633;28;20933;-66
2023/05/08 03:36:29;;;;;;;6.03;3.70;;;;;;;13.92;100.00;101510.28;2066215;28;20519;-67
2023/05/08 03:37:29;;;;;;;10.00;4.03;;;;;;;13.94;100.00;101513.41;2064938;28;20451;-67
2023/05/08 03:38:30;;;;;;;10.27;4.50;;;;;;;13.95;100.00;101519.78;2066100;28;20445;-66
2023/05/08 03:39:30;;;;;;;9.73;4.03;;;;;;;13.99;100.00;101520.50;2068850;28;20200;-67
2023/05/08 03:40:37;;;;;;;8.10;3.90;;;;;;;14.02;100.00;101525.19;2066984;28;20260;-66
2023/05/08 03:41:38;;;;;;;8.67;4.30;;;;;;;14.00;100.00;101525.63;2064636;28;20193;-66
2023/05/08 03:42:40;;;;;;;7.17;3.80;;;;;;;13.95;100.00;101528.94;2065230;28;20511;-67
2023/05/08 03:43:41;;;;;;;5.53;3.63;;;;;;;13.89;100.00;101527.88;2072373;28;20217;-67
2023/05/08 03:44:41;;;;;;;5.97;3.73;;;;;;;13.28;100.00;101431.41;2074307;28;20647;-66
2023/05/08 03:45:43;;;;;;;4.83;3.80;;;;;;;13.30;100.00;101446.47;2072377;28;20609;-66
2023/05/08 03:46:46;;;;;;;7.27;3.97;;;;;;;12.91;100.00;101378.94;2072279;28;20191;-66
2023/05/08 03:47:47;;;;;;;7.07;3.73;;;;;;;13.75;100.00;101522.63;2069215;28;20924;-66
2023/05/08 03:48:49;;;;;;;4.70;3.87;;;;;;;13.72;100.00;101523.50;2067906;28;20531;-66
2023/05/08 03:49:49;;;;;;;4.70;3.90;;;;;;;13.71;100.00;101524.72;2071184;28;20279;-66
2023/05/08 03:50:50;;;;;;;5.87;3.90;;;;;;;13.73;100.00;101527.84;2072185;28;20472;-66
2023/05/08 03:51:55;;;;;;;5.77;4.00;;;;;;;13.74;100.00;101523.06;2072039;28;20268;-65
2023/05/08 03:52:57;;;;;;;5.80;4.00;;;;;;;13.79;100.00;101534.47;2071635;28;20430;-66
2023/05/08 03:53:58;;;;;;;7.00;4.20;;;;;;;13.83;100.00;101531.63;2072170;28;20435;-67
2023/05/08 03:54:58;;;;;;;6.57;3.90;;;;;;;13.84;100.00;101533.19;2064885;28;20462;-66
2023/05/08 03:55:59;;;;;;;6.53;3.90;;;;;;;13.67;100.00;101512.84;2064340;28;20209;-66
2023/05/08 03:56:59;;;;;;;6.00;4.03;;;;;;;13.81;100.00;101540.41;2073797;28;20282;-66
2023/05/08 03:58:21;;;;;;;7.83;4.10;;;;;;;13.89;100.00;101552.16;2074220;28;20208;-67
2023/05/08 03:59:53;;;;;;;7.30;3.80;;;;;;;13.93;100.00;101552.88;2066534;28;20600;-67
2023/05/08 04:01:10;;;;;;;5.97;4.13;;;;;;;13.94;100.00;101549.63;2064309;28;20429;-65
2023/05/08 04:02:23;;;;;;;5.03;4.20;;;;;;;13.99;100.00;101551.16;2070689;28;21195;-66
2023/05/08 04:03:35;;;;;;;5.03;3.90;;;;;;;13.98;100.00;101552.38;2070788;28;20431;-66
2023/05/08 04:04:40;;;;;;;8.37;4.00;;;;;;;14.01;100.00;101552.28;2070173;28;20478;-67
2023/05/08 04:05:50;;;;;;;5.43;4.10;;;;;;;14.04;100.00;101550.63;2072026;28;20479;-66
2023/05/08 04:07:09;;;;;;;8.50;4.33;;;;;;;14.07;100.00;101558.09;2071184;28;20428;-67
2023/05/08 04:08:24;;;;;;;4.57;4.07;;;;;;;14.12;100.00;101558.38;2067943;28;20478;-67
2023/05/08 04:09:32;;;;;;;8.67;3.90;;;;;;;14.18;100.00;101565.00;2072097;28;20454;-66
2023/05/08 04:11:05;;;;;;;6.07;4.30;;;;;;;14.27;100.00;101567.22;2071957;28;20447;-66
2023/05/08 04:12:16;;;;;;;7.50;4.30;;;;;;;14.30;100.00;101569.91;2070157;28;20466;-66
2023/05/08 04:13:26;;;;;;;5.20;4.20;;;;;;;14.32;100.00;101561.13;2069465;28;20457;-66
2023/05/08 04:14:33;;;;;;;9.30;4.20;;;;;;;14.24;100.00;101565.31;2071895;28;20443;-65
2023/05/08 04:15:38;;;;;;;8.73;4.37;;;;;;;14.24;100.00;101554.16;2070752;28;21005;-66
2023/05/08 04:16:47;;;;;;;5.47;4.00;;;;;;;14.24;100.00;101560.50;2071489;28;20877;-66
2023/05/08 04:17:52;;;;;;;5.43;4.07;;;;;;;14.24;100.00;101559.75;2072542;28;20526;-67
2023/05/08 04:19:09;;;;;;;5.77;4.20;;;;;;;14.10;100.00;101527.34;2069712;28;20538;-66
2023/05/08 04:20:15;;;;;;;7.40;4.17;;;;;;;14.31;100.00;101560.34;2072308;28;20936;-67
2023/05/08 04:21:19;;;;;;;8.23;4.47;;;;;;;14.41;100.00;101562.09;2070978;28;20499;-66
2023/05/08 04:22:24;;;;;;;8.27;4.30;;;;;;;14.49;100.00;101563.47;2071790;28;21001;-67
2023/05/08 04:23:26;;;;;;;5.00;3.70;;;;;;;14.51;100.00;101554.69;2070775;28;20936;-66
2023/05/08 04:24:29;;;;;;;7.83;4.07;;;;;;;14.49;100.00;101541.16;2070886;28;20948;-67
2023/05/08 04:25:32;;;;;;;6.93;4.90;;;;;;;14.47;100.00;101526.09;2071942;28;20436;-66
2023/05/08 04:26:33;;;;;;;9.97;4.27;;;;;;;14.82;100.00;101565.03;2072521;28;20428;-67
2023/05/08 04:27:35;;;;;;;9.30;4.80;;;;;;;14.83;100.00;101552.63;2072237;28;20439;-67
2023/05/08 04:28:35;;;;;;;8.63;4.50;;;;;;;14.87;100.00;101553.34;2071998;28;20458;-66
2023/05/08 04:29:36;;;;;;;9.73;4.67;;;;;;;14.95;100.00;101565.88;2071804;28;20435;-66
2023/05/08 04:30:38;;;;;;;6.50;4.57;;;;;;;14.94;100.00;101561.50;2072212;28;20194;-66
2023/05/08 04:31:39;;;;;;;8.30;4.60;;;;;;;14.64;100.00;101531.22;2071830;28;20218;-66
2023/05/08 04:32:40;;;;;;;11.80;5.30;;;;;;;15.05;100.00;101558.41;2071075;28;20495;-67
2023/05/08 04:33:43;;;;;;;9.30;5.27;;;;;;;15.04;100.00;101554.84;2071272;28;20212;-67
2023/05/08 04:34:43;;;;;;;7.53;4.73;;;;;;;14.73;100.00;101506.28;2071173;28;20464;-66
2023/05/08 04:35:45;;;;;;;8.07;5.00;;;;;;;15.20;100.00;101570.75;2072178;28;20427;-67
2023/05/08 04:36:47;;;;;;;9.90;6.20;;;;;;;15.17;100.00;101555.66;2072271;28;20182;-66
2023/05/08 04:37:47;;;;;;;6.80;5.20;;;;;;;15.37;100.00;101575.13;2071827;28;20448;-66
2023/05/08 04:38:48;;;;;;;10.50;5.97;;;;;;;15.42;100.00;101569.75;2072112;28;20454;-67
2023/05/08 04:39:50;;;;;;;10.77;6.23;;;;;;;15.37;100.00;101558.34;2071598;28;20294;-66
2023/05/08 04:40:50;;;;;;;7.90;6.20;;;;;;;15.37;100.00;101547.94;2072063;28;20690;-66
2023/05/08 04:41:53;;;;;;;12.97;6.00;;;;;;;15.24;100.00;101521.97;2070463;28;20890;-66
2023/05/08 04:42:54;;;;;;;10.50;5.60;;;;;;;15.47;100.00;101558.03;2069990;28;20267;-66
2023/05/08 04:43:55;;;;;;;6.90;5.70;;;;;;;15.56;100.00;101565.75;2071950;28;20437;-66
2023/05/08 04:44:55;;;;;;;8.43;5.93;;;;;;;14.78;100.00;101430.41;2073019;28;20209;-67
2023/05/08 04:45:56;;;;;;;8.70;5.90;;;;;;;15.64;100.00;101570.72;2071794;28;20185;-66
2023/05/08 04:46:56;;;;;;;9.20;6.00;;;;;;;15.51;100.00;101538.38;2072278;28;20267;-67
2023/05/08 04:47:57;;;;;;;8.87;6.57;;;;;;;15.53;100.00;101542.28;2071369;28;20590;-67
2023/05/08 04:48:57;;;;;;;9.57;6.17;;;;;;;15.84;100.00;101571.28;2072063;28;20194;-66
2023/05/08 04:49:57;;;;;;;7.57;6.17;;;;;;;15.73;100.00;101559.66;2071503;28;20210;-66
2023/05/08 04:50:58;;;;;;;9.73;6.67;;;;;;;15.65;100.00;101552.72;2071991;28;20199;-67
2023/05/08 04:51:59;;;;;;;9.13;6.67;;;;;;;15.81;100.00;101569.41;2071468;28;20268;-66
2023/05/08 04:53:00;;;;;;;11.80;6.50;;;;;;;15.84;100.00;101570.53;2072232;28;20682;-67
2023/05/08 04:54:00;;;;;;;9.43;6.50;;;;;;;15.88;100.00;101571.97;2072005;28;20282;-67
2023/05/08 04:55:01;;;;;;;10.60;6.47;;;;;;;15.97;100.00;101577.69;2071756;28;20658;-66
2023/05/08 04:56:01;;;;;;;10.53;6.37;;;;;;;16.04;100.00;101568.28;2070689;28;20825;-67
2023/05/08 04:57:02;;;;;;;13.30;7.80;;;;;;;16.10;100.00;101572.09;2069305;28;20308;-66
2023/05/08 04:58:02;;;;;;;12.33;7.87;;;;;;;16.11;100.00;101571.66;2071274;28;24550;-66
2023/05/08 04:59:03;;;;;;;10.87;7.27;;;;;;;16.16;100.00;101576.69;2071909;28;20198;-67